Time;durP1;ratioP1;P1;durP2;ratioP2;P2;SDS_P1;SDS_P2;PMS_P1;PMS_P2;Temp;Humidity;BMP_temperature;BMP_pressure;BME280_temperature;BME280_humidity;BME280_pressure;Samples;Min_cycle;Max_cycle;Signal;HPM_P1;HPM_P2
2022/12/04 00:01:03;;;;;;;;;;;;;;;-0.99;72.93;102978.09;4995220;28;20417;-67
2022/12/04 00:03:29;;;;;;;;;;;;;;;-0.99;72.50;102977.22;4995034;28;20291;-66
2022/12/04 00:06:01;;;;;;;;;;;;;;;-0.99;73.42;102971.97;4994130;28;19918;-66
2022/12/04 00:08:28;;;;;;;;;;;;;;;-0.99;73.14;102970.16;4993923;28;21345;-65
2022/12/04 00:10:53;;;;;;;;;;;;;;;-1.02;71.51;102969.44;4994380;28;19988;-66
2022/12/04 00:13:19;;;;;;;;;;;;;;;-1.04;73.48;102965.97;4994965;28;19914;-66
2022/12/04 00:15:44;;;;;;;;;;;;;;;-1.03;73.49;102971.22;4994689;28;19921;-66
2022/12/04 00:18:09;;;;;;;;;;;;;;;-1.04;72.80;102976.53;4994733;28;20342;-66
2022/12/04 00:20:37;;;;;;;;;;;;;;;-1.03;74.07;102971.22;4994331;28;19914;-66
2022/12/04 00:23:02;;;;;;;;;;;;;;;-1.02;73.17;102974.72;4994624;28;19933;-67
2022/12/04 00:25:29;;;;;;;;;;;;;;;-1.02;72.46;102975.59;4994301;28;19918;-67
2022/12/04 00:27:54;;;;;;;;;;;;;;;-1.03;71.96;102976.47;4994719;28;19917;-66
2022/12/04 00:30:20;;;;;;;;;;;;;;;-1.04;72.95;102982.69;4994591;28;20289;-67
2022/12/04 00:32:45;;;;;;;;;;;;;;;-1.05;72.56;102973.03;4994646;28;19952;-67
2022/12/04 00:35:10;;;;;;;;;;;;;;;-1.06;72.97;102973.97;4993958;28;19921;-65
2022/12/04 00:37:35;;;;;;;;;;;;;;;-1.06;72.54;102981.88;4993739;28;19929;-66
2022/12/04 00:40:02;;;;;;;;;;;;;;;-1.05;74.31;102980.97;4994490;28;19922;-67
2022/12/04 00:42:27;;;;;;;;;;;;;;;-1.01;75.95;102969.38;4993052;28;19918;-67
2022/12/04 00:44:52;;;;;;;;;;;;;;;-0.98;75.41;102969.28;4993972;28;20345;-65
2022/12/04 00:47:18;;;;;;;;;;;;;;;-0.97;74.71;102967.47;4994359;28;20397;-65
2022/12/04 00:49:43;;;;;;;;;;;;;;;-1.02;73.46;102965.03;4994202;28;19961;-66
2022/12/04 00:52:08;;;;;;;;;;;;;;;-1.03;73.20;102968.56;4994086;28;19918;-69
2022/12/04 00:54:34;;;;;;;;;;;;;;;-1.03;73.94;102958.03;4994778;28;19917;-68
2022/12/04 00:56:59;;;;;;;;;;;;;;;-1.04;72.92;102950.16;4994146;28;19964;-67
2022/12/04 00:59:24;;;;;;;;;;;;;;;-1.05;74.88;102951.94;4997749;28;19914;-67
2022/12/04 01:01:49;;;;;;;;;;;;;;;-1.02;75.14;102951.84;4998024;28;19914;-66
2022/12/04 01:04:15;;;;;;;;;;;;;;;-1.04;73.85;102958.06;4997710;28;19914;-67
2022/12/04 01:06:40;;;;;;;;;;;;;;;-1.02;74.08;102948.34;4996054;28;19918;-66
2022/12/04 01:09:05;;;;;;;;;;;;;;;-1.03;73.07;102947.47;4998094;28;19937;-66
2022/12/04 01:11:31;;;;;;;;;;;;;;;-1.04;73.00;102944.88;4999182;28;20004;-67
2022/12/04 01:13:57;;;;;;;;;;;;;;;-1.03;72.87;102941.34;5000340;28;19935;-67
2022/12/04 01:16:27;;;;;;;;;;;;;;;-1.05;71.70;102945.81;5000505;28;20009;-67
2022/12/04 01:18:52;;;;;;;;;;;;;;;-1.04;71.88;102951.03;4999846;28;19914;-67
2022/12/04 01:21:17;;;;;;;;;;;;;;;-1.00;75.79;102946.53;4998435;28;19921;-67
2022/12/04 01:23:43;;;;;;;;;;;;;;;-0.96;76.40;102948.13;4998927;28;20436;-65
2022/12/04 01:26:08;;;;;;;;;;;;;;;-1.02;71.67;102943.09;4998393;28;20421;-65
2022/12/04 01:28:34;;;;;;;;;;;;;;;-1.01;73.13;102956.19;4997749;28;20429;-65
2022/12/04 01:31:00;;;;;;;;;;;;;;;-1.03;72.95;102946.63;4997162;28;19913;-68
2022/12/04 01:33:26;;;;;;;;;;;;;;;-1.02;73.37;102948.34;4997433;28;19920;-68
2022/12/04 01:35:55;;;;;;;;;;;;;;;-1.00;74.40;102951.78;4997686;28;19914;-69
2022/12/04 01:38:21;;;;;;;;;;;;;;;-1.04;72.55;102951.03;4995998;28;19928;-67
2022/12/04 01:40:46;;;;;;;;;;;;;;;-1.03;71.81;102947.47;4997320;28;19918;-67
2022/12/04 01:43:11;;;;;;;;;;;;;;;-1.05;73.37;102945.81;4997149;28;19957;-67
2022/12/04 01:45:45;;;;;;;;;;;;;;;-1.04;74.38;102948.41;4997185;28;19953;-69
2022/12/04 01:48:16;;;;;;;;;;;;;;;-1.04;73.15;102944.88;4997317;28;20005;-69
2022/12/04 01:50:43;;;;;;;;;;;;;;;-1.05;73.96;102941.41;4997226;28;19992;-68
2022/12/04 01:53:08;;;;;;;;;;;;;;;-1.06;72.97;102942.34;4997182;28;20370;-67
2022/12/04 01:55:33;;;;;;;;;;;;;;;-1.05;72.30;102946.66;4995759;28;19917;-67
2022/12/04 01:58:00;;;;;;;;;;;;;;;-1.06;70.89;102937.06;4997205;28;19913;-67
2022/12/04 02:00:25;;;;;;;;;;;;;;;-1.06;71.88;102946.72;4996601;28;19913;-66
2022/12/04 02:02:50;;;;;;;;;;;;;;;-1.07;72.70;102934.47;4997098;28;19920;-66
2022/12/04 02:05:18;;;;;;;;;;;;;;;-1.06;72.75;102936.19;4996819;28;19950;-67
2022/12/04 02:07:44;;;;;;;;;;;;;;;-1.09;71.59;102936.31;4996537;28;19918;-67
2022/12/04 02:10:10;;;;;;;;;;;;;;;-1.08;72.68;102935.38;4994693;28;19913;-66
2022/12/04 02:12:51;;;;;;;;;;;;;;;-1.09;70.93;102933.69;4996778;28;19973;-67
2022/12/04 02:15:21;;;;;;;;;;;;;;;-1.11;72.24;102932.88;4997008;28;20266;-66
2022/12/04 02:18:05;;;;;;;;;;;;;;;-1.09;72.58;102936.31;4996703;28;19964;-67
2022/12/04 02:20:33;;;;;;;;;;;;;;;-1.04;75.56;102934.34;4995548;28;19914;-67
2022/12/04 02:23:17;;;;;;;;;;;;;;;-1.05;74.83;102935.28;4996905;28;19913;-67
2022/12/04 02:25:42;;;;;;;;;;;;;;;-1.09;70.72;102941.59;4996419;28;19918;-67
2022/12/04 02:28:34;;;;;;;;;;;;;;;-1.09;71.82;102942.44;4995148;28;19914;-68
2022/12/04 02:31:01;;;;;;;;;;;;;;;-1.11;71.98;102938.16;4994080;28;20251;-67
2022/12/04 02:33:35;;;;;;;;;;;;;;;-1.10;74.20;102937.22;4995038;28;19914;-67
2022/12/04 02:36:11;;;;;;;;;;;;;;;-1.13;72.93;102930.28;4995922;28;19914;-68
2022/12/04 02:38:43;;;;;;;;;;;;;;;-1.09;74.54;102931.88;4996227;28;19932;-67
2022/12/04 02:41:12;;;;;;;;;;;;;;;-1.12;72.56;102924.06;4996469;28;19914;-68
2022/12/04 02:43:49;;;;;;;;;;;;;;;-1.12;71.04;102937.25;4996393;28;19914;-65
2022/12/04 02:46:24;;;;;;;;;;;;;;;-1.15;70.09;102936.50;4996270;28;20274;-65
2022/12/04 02:48:52;;;;;;;;;;;;;;;-1.13;73.13;102935.56;4996526;28;20370;-67
2022/12/04 02:51:19;;;;;;;;;;;;;;;-1.15;71.53;102929.50;4995819;28;19914;-66
2022/12/04 02:53:48;;;;;;;;;;;;;;;-1.11;74.01;102935.50;4996176;28;19968;-67
2022/12/04 02:56:16;;;;;;;;;;;;;;;-1.10;74.23;102932.78;4995665;28;19924;-66
2022/12/04 02:58:52;;;;;;;;;;;;;;;-1.12;73.40;102929.34;4995915;28;19913;-66
2022/12/04 03:01:22;;;;;;;;;;;;;;;-1.13;72.08;102935.56;4995724;28;19913;-66
2022/12/04 03:03:50;;;;;;;;;;;;;;;-1.14;71.20;102932.97;4995254;28;19925;-67
2022/12/04 03:06:17;;;;;;;;;;;;;;;-1.15;73.08;102940.03;4995393;28;19964;-67
2022/12/04 03:08:48;;;;;;;;;;;;;;;-1.17;72.14;102929.53;4995604;28;19921;-67
2022/12/04 03:11:13;;;;;;;;;;;;;;;-1.15;72.67;102932.13;4995561;28;19982;-67
2022/12/04 03:13:43;;;;;;;;;;;;;;;-1.16;70.93;102927.75;4995841;28;20008;-67
2022/12/04 03:16:14;;;;;;;;;;;;;;;-1.18;71.22;102932.22;4995515;28;19921;-66
2022/12/04 03:18:42;;;;;;;;;;;;;;;-1.20;70.26;102924.38;4995454;28;20337;-67
2022/12/04 03:21:16;;;;;;;;;;;;;;;-1.20;71.18;102929.63;4994729;28;19918;-66
2022/12/04 03:23:54;;;;;;;;;;;;;;;-1.20;70.85;102932.28;4995110;28;20370;-67
2022/12/04 03:26:19;;;;;;;;;;;;;;;-1.23;68.92;102929.75;4995139;28;19996;-66
2022/12/04 03:28:51;;;;;;;;;;;;;;;-1.26;70.21;102935.16;4995016;28;19953;-66
2022/12/04 03:31:21;;;;;;;;;;;;;;;-1.26;71.83;102932.50;4995429;28;19914;-66
2022/12/04 03:33:46;;;;;;;;;;;;;;;-1.28;69.75;102922.91;4993914;28;20013;-66
2022/12/04 03:36:31;;;;;;;;;;;;;;;-1.28;69.51;102938.72;4995167;28;19960;-66
2022/12/04 03:39:15;;;;;;;;;;;;;;;-1.27;71.64;102922.00;4994964;28;19975;-67
2022/12/04 03:41:54;;;;;;;;;;;;;;;-1.27;71.21;102922.00;4994567;28;19914;-66
2022/12/04 03:44:34;;;;;;;;;;;;;;;-1.30;70.37;102922.13;4994817;28;20370;-66
2022/12/04 03:47:04;;;;;;;;;;;;;;;-1.31;68.50;102917.78;4993919;28;19918;-66
2022/12/04 03:49:41;;;;;;;;;;;;;;;-1.33;69.15;102919.63;4994777;28;19920;-67
2022/12/04 03:52:13;;;;;;;;;;;;;;;-1.34;70.75;102918.72;4994668;28;19914;-67
2022/12/04 03:54:45;;;;;;;;;;;;;;;-1.35;69.69;102921.44;4994665;28;19914;-67
2022/12/04 03:57:16;;;;;;;;;;;;;;;-1.35;72.07;102924.94;4994817;28;19914;-67
2022/12/04 04:00:00;;;;;;;;;;;;;;;-1.37;69.50;102917.06;4994848;28;19914;-67
2022/12/04 04:02:29;;;;;;;;;;;;;;;-1.38;69.26;102925.88;4994649;28;19945;-67
2022/12/04 04:04:56;;;;;;;;;;;;;;;-1.40;68.88;102927.72;4994223;28;19922;-67
2022/12/04 04:07:28;;;;;;;;;;;;;;;-1.40;69.46;102933.00;4994490;28;19918;-67
2022/12/04 04:09:56;;;;;;;;;;;;;;;-1.42;69.27;102933.97;4994531;28;19924;-66
2022/12/04 04:12:27;;;;;;;;;;;;;;;-1.44;68.70;102930.53;4994379;28;20007;-66
2022/12/04 04:26:01;;;;;;;;;;;;;;;-1.48;71.16;102929.78;4994701;28;19991;-66
2022/12/04 04:28:31;;;;;;;;;;;;;;;-1.50;70.85;102936.88;4994301;28;19913;-67
2022/12/04 04:31:06;;;;;;;;;;;;;;;-1.52;69.30;102936.09;4994720;28;19937;-66
2022/12/04 04:33:33;;;;;;;;;;;;;;;-1.53;68.47;102939.63;4996186;28;20234;-66
2022/12/04 04:36:06;;;;;;;;;;;;;;;-1.53;69.56;102936.13;4998063;28;19965;-67
2022/12/04 04:38:38;;;;;;;;;;;;;;;-1.50;71.46;102936.88;4998192;28;19922;-67
2022/12/04 04:41:20;;;;;;;;;;;;;;;-1.53;70.79;102936.97;4998403;28;20460;-66
2022/12/04 04:43:54;;;;;;;;;;;;;;;-1.54;70.47;102935.28;4998677;28;19949;-67
2022/12/04 04:46:22;;;;;;;;;;;;;;;-1.57;70.79;102930.94;4998241;28;19918;-67
2022/12/04 04:48:50;;;;;;;;;;;;;;;-1.57;71.02;102932.75;4998549;28;19913;-67
2022/12/04 04:51:16;;;;;;;;;;;;;;;-1.59;70.46;102930.16;4998078;28;19965;-67
2022/12/04 04:53:46;;;;;;;;;;;;;;;-1.59;72.50;102924.88;4998523;28;19948;-66
2022/12/04 04:56:12;;;;;;;;;;;;;;;-1.60;70.26;102924.94;4996952;28;19917;-66
2022/12/04 04:58:38;;;;;;;;;;;;;;;-1.61;71.16;102921.44;4998068;28;19918;-67
2022/12/04 05:01:06;;;;;;;;;;;;;;;-1.60;71.10;102917.91;4996549;28;19918;-67
2022/12/04 05:03:31;;;;;;;;;;;;;;;-1.61;70.43;102918.81;4998226;28;19914;-67
2022/12/04 05:05:56;;;;;;;;;;;;;;;-1.59;72.48;102924.88;4997938;28;20408;-66
2022/12/04 05:08:22;;;;;;;;;;;;;;;-1.54;72.69;102921.22;4997967;28;20013;-66
2022/12/04 05:10:47;;;;;;;;;;;;;;;-1.54;70.03;102923.84;4997673;28;19936;-66
2022/12/04 05:13:13;;;;;;;;;;;;;;;-1.54;72.16;102924.75;4997726;28;19914;-66
2022/12/04 05:15:38;;;;;;;;;;;;;;;-1.57;69.05;102930.09;4998325;28;20009;-66
2022/12/04 05:18:04;;;;;;;;;;;;;;;-1.59;68.77;102926.66;4997984;28;19917;-66
2022/12/04 05:20:29;;;;;;;;;;;;;;;-1.56;72.11;102927.41;4998043;28;20025;-67
2022/12/04 05:22:55;;;;;;;;;;;;;;;-1.52;71.97;102927.28;4996649;28;19913;-67
2022/12/04 05:25:20;;;;;;;;;;;;;;;-1.54;69.82;102924.75;4998369;28;19918;-67
2022/12/04 05:27:45;;;;;;;;;;;;;;;-1.56;70.40;102918.63;4999225;28;19992;-67
2022/12/04 05:30:11;;;;;;;;;;;;;;;-1.58;69.53;102925.72;5000162;28;19914;-67
2022/12/04 05:32:36;;;;;;;;;;;;;;;-1.57;70.76;102930.09;4998450;28;20255;-67
2022/12/04 05:35:01;;;;;;;;;;;;;;;-1.59;71.48;102924.03;5003985;28;19921;-67
2022/12/04 05:37:27;;;;;;;;;;;;;;;-1.64;68.14;102925.97;5005063;28;19953;-67
2022/12/04 05:39:52;;;;;;;;;;;;;;;-1.68;68.99;102926.97;5001119;28;19977;-67
2022/12/04 05:42:18;;;;;;;;;;;;;;;-1.69;69.65;102928.78;4997682;28;19914;-67
2022/12/04 05:44:43;;;;;;;;;;;;;;;-1.68;70.38;102926.97;4996416;28;20003;-67
2022/12/04 05:47:09;;;;;;;;;;;;;;;-1.70;70.59;102931.44;4997513;28;19995;-67
2022/12/04 05:49:35;;;;;;;;;;;;;;;-1.67;72.41;102931.31;4996923;28;19913;-67
2022/12/04 05:52:02;;;;;;;;;;;;;;;-1.68;70.80;102926.97;4997040;28;19914;-67
2022/12/04 05:54:28;;;;;;;;;;;;;;;-1.72;69.07;102939.41;4997022;28;19914;-67
2022/12/04 05:56:53;;;;;;;;;;;;;;;-1.72;70.23;102935.91;4996709;28;19936;-67
2022/12/04 05:59:18;;;;;;;;;;;;;;;-1.70;71.56;102942.84;4995965;28;19920;-67
2022/12/04 06:01:44;;;;;;;;;;;;;;;-1.70;69.84;102952.53;4995903;28;19918;-67
2022/12/04 06:04:09;;;;;;;;;;;;;;;-1.69;69.93;102944.56;4996955;28;19963;-67
2022/12/04 06:06:35;;;;;;;;;;;;;;;-1.66;70.03;102951.50;4996717;28;20369;-67
2022/12/04 06:09:00;;;;;;;;;;;;;;;-1.69;70.16;102947.22;4996580;28;19920;-67
2022/12/04 06:11:27;;;;;;;;;;;;;;;-1.62;72.60;102942.56;4996579;28;19914;-67
2022/12/04 06:13:52;;;;;;;;;;;;;;;-1.59;72.76;102938.06;4996350;28;19949;-67
2022/12/04 06:16:19;;;;;;;;;;;;;;;-1.59;70.39;102945.97;4996828;28;19960;-67
2022/12/04 06:18:47;;;;;;;;;;;;;;;-1.56;72.85;102948.50;4996753;28;19918;-67
2022/12/04 06:21:12;;;;;;;;;;;;;;;-1.56;70.94;102947.63;4995104;28;19913;-67
2022/12/04 06:23:37;;;;;;;;;;;;;;;-1.60;70.87;102946.91;4996105;28;20028;-67
2022/12/04 06:26:04;;;;;;;;;;;;;;;-1.58;71.59;102946.81;4996380;28;19945;-67
2022/12/04 06:28:29;;;;;;;;;;;;;;;-1.54;72.30;102953.72;4996703;28;19968;-67
2022/12/04 06:30:54;;;;;;;;;;;;;;;-1.54;70.77;102945.81;4996057;28;19917;-67
2022/12/04 06:33:19;;;;;;;;;;;;;;;-1.59;69.11;102945.97;4996657;28;19914;-67
2022/12/04 06:35:45;;;;;;;;;;;;;;;-1.59;70.90;102943.31;4996133;28;20346;-67
2022/12/04 06:38:12;;;;;;;;;;;;;;;-1.59;69.36;102955.66;4994766;28;19929;-67
2022/12/04 06:40:40;;;;;;;;;;;;;;;-1.58;70.75;102947.69;4995884;28;19914;-67
2022/12/04 06:43:05;;;;;;;;;;;;;;;-1.53;73.06;102958.06;4996044;28;19914;-67
2022/12/04 06:45:30;;;;;;;;;;;;;;;-1.48;74.14;102953.50;4994861;28;19918;-67
2022/12/04 06:47:56;;;;;;;;;;;;;;;-1.45;73.18;102948.13;4996292;28;19925;-67
2022/12/04 06:50:21;;;;;;;;;;;;;;;-1.42;74.16;102948.00;4995745;28;19913;-67
2022/12/04 06:52:46;;;;;;;;;;;;;;;-1.40;73.37;102948.81;4995909;28;20354;-67
2022/12/04 06:55:11;;;;;;;;;;;;;;;-1.39;71.97;102957.59;4996110;28;19955;-67
2022/12/04 06:57:36;;;;;;;;;;;;;;;-1.38;72.72;102952.25;4995981;28;19969;-67
2022/12/04 07:00:02;;;;;;;;;;;;;;;-1.35;73.77;102953.94;4995599;28;20429;-67
2022/12/04 07:02:28;;;;;;;;;;;;;;;-1.33;73.36;102957.38;4995922;28;19986;-67
2022/12/04 07:04:54;;;;;;;;;;;;;;;-1.33;73.06;102954.72;4994312;28;19918;-68
2022/12/04 07:07:20;;;;;;;;;;;;;;;-1.33;73.34;102952.09;4995272;28;19914;-67
2022/12/04 07:09:46;;;;;;;;;;;;;;;-1.34;72.29;102954.78;4995493;28;19933;-66
2022/12/04 07:12:11;;;;;;;;;;;;;;;-1.34;73.17;102952.13;4995564;28;19913;-66
2022/12/04 07:14:36;;;;;;;;;;;;;;;-1.35;72.79;102955.72;4995511;28;20365;-66
2022/12/04 07:17:02;;;;;;;;;;;;;;;-1.35;72.60;102958.34;4995668;28;19914;-67
2022/12/04 07:19:27;;;;;;;;;;;;;;;-1.40;72.40;102956.72;4995616;28;19936;-66
2022/12/04 07:21:52;;;;;;;;;;;;;;;-1.38;73.12;102960.16;4995335;28;19914;-66
2022/12/04 07:24:18;;;;;;;;;;;;;;;-1.34;73.80;102957.41;4993923;28;19964;-66
2022/12/04 07:26:44;;;;;;;;;;;;;;;-1.33;73.72;102964.41;4995148;28;20313;-66
2022/12/04 07:29:09;;;;;;;;;;;;;;;-1.38;72.96;102960.16;4995637;28;20405;-66
2022/12/04 07:31:34;;;;;;;;;;;;;;;-1.37;73.31;102961.03;4995221;28;19913;-66
2022/12/04 07:34:00;;;;;;;;;;;;;;;-1.36;73.25;102962.72;4995426;28;19914;-66
2022/12/04 07:36:26;;;;;;;;;;;;;;;-1.35;72.99;102960.97;4994530;28;19956;-66
2022/12/04 07:38:53;;;;;;;;;;;;;;;-1.34;73.66;102962.69;4995244;28;19921;-66
2022/12/04 07:41:18;;;;;;;;;;;;;;;-1.35;72.82;102968.88;4994834;28;19945;-67
2022/12/04 07:43:43;;;;;;;;;;;;;;;-1.37;72.16;102961.03;4995242;28;19959;-67
2022/12/04 07:46:10;;;;;;;;;;;;;;;-1.38;71.91;102970.69;4995037;28;19957;-66
2022/12/04 07:48:36;;;;;;;;;;;;;;;-1.38;71.15;102962.78;4994511;28;19937;-66
2022/12/04 07:51:21;;;;;;;;;;;;;;;-1.34;73.39;102966.16;4994873;28;19914;-66
2022/12/04 07:53:47;;;;;;;;;;;;;;;-1.34;71.28;102962.69;4994135;28;19917;-66
2022/12/04 07:56:13;;;;;;;;;;;;;;;-1.33;72.33;102969.69;4994589;28;20416;-66
2022/12/04 07:58:40;;;;;;;;;;;;;;;-1.34;71.52;102966.16;4994729;28;20267;-66
2022/12/04 08:01:11;;;;;;;;;;;;;;;-1.32;73.42;102968.75;4995200;28;19921;-66
2022/12/04 08:03:37;;;;;;;;;;;;;;;-1.31;74.84;102965.22;4994627;28;19924;-66
2022/12/04 08:06:03;;;;;;;;;;;;;;;-1.33;72.42;102967.06;4994349;28;19917;-66
2022/12/04 08:08:29;;;;;;;;;;;;;;;-1.39;70.98;102965.50;4993955;28;19913;-67
2022/12/04 08:10:54;;;;;;;;;;;;;;;-1.42;72.13;102971.72;4994417;28;20343;-67
2022/12/04 08:13:19;;;;;;;;;;;;;;;-1.45;69.86;102973.59;4994113;28;19914;-67
2022/12/04 08:15:45;;;;;;;;;;;;;;;-1.41;73.64;102973.47;4994619;28;20363;-67
2022/12/04 08:18:10;;;;;;;;;;;;;;;-1.38;74.88;102970.69;4994444;28;19918;-67
2022/12/04 08:20:35;;;;;;;;;;;;;;;-1.39;72.27;102966.34;4994872;28;19913;-67
2022/12/04 08:23:00;;;;;;;;;;;;;;;-1.39;72.00;102976.91;4994818;28;20313;-67
2022/12/04 08:25:26;;;;;;;;;;;;;;;-1.38;72.96;102977.75;4993219;28;19918;-67
2022/12/04 08:27:52;;;;;;;;;;;;;;;-1.35;74.46;102977.66;4994461;28;20098;-67
2022/12/04 08:30:20;;;;;;;;;;;;;;;-1.33;72.59;102980.25;4994430;28;19936;-67
2022/12/04 08:32:46;;;;;;;;;;;;;;;-1.35;71.56;102969.75;4994410;28;19914;-67
2022/12/04 08:35:11;;;;;;;;;;;;;;;-1.37;69.99;102980.34;4994284;28;20231;-67
2022/12/04 08:37:37;;;;;;;;;;;;;;;-1.36;71.25;102978.53;4992456;28;20011;-67
2022/12/04 08:40:02;;;;;;;;;;;;;;;-1.33;72.97;102983.72;4994401;28;20265;-67
2022/12/04 08:42:28;;;;;;;;;;;;;;;-1.28;73.82;102973.00;4994122;28;19914;-67
2022/12/04 08:44:53;;;;;;;;;;;;;;;-1.32;70.17;102976.66;4993979;28;19921;-67
2022/12/04 08:47:18;;;;;;;;;;;;;;;-1.37;68.05;102988.25;4993669;28;20008;-66
2022/12/04 08:49:43;;;;;;;;;;;;;;;-1.35;69.90;102982.06;4993834;28;20255;-66
2022/12/04 08:52:09;;;;;;;;;;;;;;;-1.39;69.44;102979.53;4994203;28;20341;-67
2022/12/04 08:54:34;;;;;;;;;;;;;;;-1.40;70.04;102990.97;4993908;28;19921;-66
2022/12/04 08:56:59;;;;;;;;;;;;;;;-1.33;73.61;103001.31;4994251;28;19913;-67
2022/12/04 08:59:25;;;;;;;;;;;;;;;-1.35;70.32;102996.09;4993863;28;20008;-67
2022/12/04 09:01:53;;;;;;;;;;;;;;;-1.36;68.69;102997.00;4993690;28;20374;-68
2022/12/04 09:04:18;;;;;;;;;;;;;;;-1.38;68.93;102994.41;4994174;28;19914;-68
2022/12/04 09:06:44;;;;;;;;;;;;;;;-1.33;71.75;102990.78;4994022;28;19922;-67
2022/12/04 09:09:09;;;;;;;;;;;;;;;-1.34;69.63;102987.25;4993889;28;19914;-65
2022/12/04 09:11:34;;;;;;;;;;;;;;;-1.38;67.79;102993.56;4993824;28;19918;-67
2022/12/04 09:14:00;;;;;;;;;;;;;;;-1.35;69.97;102989.97;4993914;28;19967;-67
2022/12/04 09:16:25;;;;;;;;;;;;;;;-1.37;68.01;102993.50;4993893;28;19937;-67
2022/12/04 09:18:51;;;;;;;;;;;;;;;-1.37;69.06;102987.38;4994844;28;19921;-67
2022/12/04 09:21:18;;;;;;;;;;;;;;;-1.38;69.64;102986.50;4997535;28;19917;-67
2022/12/04 09:23:43;;;;;;;;;;;;;;;-1.31;72.72;102989.81;4997042;28;20008;-67
2022/12/04 09:26:20;;;;;;;;;;;;;;;-1.30;69.34;102982.75;4997392;28;20005;-67
2022/12/04 09:28:46;;;;;;;;;;;;;;;-1.34;66.62;102987.25;4997190;28;19914;-67
2022/12/04 09:31:11;;;;;;;;;;;;;;;-1.32;69.57;102984.56;4997290;28;19920;-67
2022/12/04 09:33:36;;;;;;;;;;;;;;;-1.31;69.04;102984.53;4996593;28;19913;-67
2022/12/04 09:36:02;;;;;;;;;;;;;;;-1.26;69.83;102985.22;4996976;28;19914;-67
2022/12/04 09:38:28;;;;;;;;;;;;;;;-1.24;68.33;102974.63;4995666;28;19928;-67
2022/12/04 09:40:59;;;;;;;;;;;;;;;-1.26;68.06;102977.31;4997057;28;19921;-67
2022/12/04 09:43:27;;;;;;;;;;;;;;;-1.25;69.60;102981.66;4997226;28;19917;-67
2022/12/04 09:45:54;;;;;;;;;;;;;;;-1.29;67.29;102984.47;4997201;28;19925;-67
2022/12/04 09:48:21;;;;;;;;;;;;;;;-1.30;67.72;102980.09;4996846;28;20005;-67
2022/12/04 09:50:48;;;;;;;;;;;;;;;-1.30;69.32;102978.34;4995286;28;19960;-67
2022/12/04 09:53:26;;;;;;;;;;;;;;;-1.24;69.63;102974.63;4997475;28;19920;-67
2022/12/04 09:55:57;;;;;;;;;;;;;;;-1.27;66.42;102975.59;4996970;28;20262;-67
2022/12/04 09:58:24;;;;;;;;;;;;;;;-1.21;71.01;102974.50;4996736;28;20012;-67
2022/12/04 10:00:50;;;;;;;;;;;;;;;-1.18;69.35;102974.41;4997066;28;19913;-67
2022/12/04 10:03:17;;;;;;;;;;;;;;;-1.19;68.81;102970.91;4996632;28;20246;-67
2022/12/04 10:05:49;;;;;;;;;;;;;;;-1.17;69.93;102965.56;4994951;28;19917;-67
2022/12/04 10:08:14;;;;;;;;;;;;;;;-1.18;68.59;102974.41;4997127;28;20009;-67
2022/12/04 10:10:51;;;;;;;;;;;;;;;-1.15;68.42;102970.78;4996832;28;20333;-67
2022/12/04 10:13:35;;;;;;;;;;;;;;;-1.10;70.06;102971.50;4996689;28;20026;-67
2022/12/04 10:16:05;;;;;;;;;;;;;;;-1.10;67.89;102974.97;4996197;28;20277;-67
2022/12/04 10:18:33;;;;;;;;;;;;;;;-1.13;67.38;102968.94;4996442;28;20362;-67
2022/12/04 10:21:04;;;;;;;;;;;;;;;-1.08;69.68;102970.50;4996586;28;19914;-66
2022/12/04 10:23:29;;;;;;;;;;;;;;;-1.05;69.61;102975.69;4996571;28;19964;-66
2022/12/04 10:25:55;;;;;;;;;;;;;;;-1.05;68.22;102972.19;4996170;28;19922;-66
2022/12/04 10:28:29;;;;;;;;;;;;;;;-1.00;70.02;102967.63;4996157;28;19914;-66
2022/12/04 10:30:58;;;;;;;;;;;;;;;-0.99;70.33;102970.16;4996104;28;19956;-68
2022/12/04 10:33:29;;;;;;;;;;;;;;;-1.00;70.19;102965.84;4995870;28;19921;-67
2022/12/04 10:35:54;;;;;;;;;;;;;;;-0.97;70.01;102964.84;4996073;28;19917;-66
2022/12/04 10:38:38;;;;;;;;;;;;;;;-0.99;67.83;102956.97;4995845;28;20366;-67
2022/12/04 10:41:24;;;;;;;;;;;;;;;-0.95;69.45;102964.78;4995833;28;19940;-67
2022/12/04 10:43:49;;;;;;;;;;;;;;;-0.89;72.87;102965.44;4994735;28;19914;-67
2022/12/04 10:46:20;;;;;;;;;;;;;;;-0.85;72.70;102968.81;4996141;28;19918;-67
2022/12/04 10:48:46;;;;;;;;;;;;;;;-0.83;72.84;102964.34;4995978;28;19914;-67
2022/12/04 10:51:13;;;;;;;;;;;;;;;-0.84;70.80;102963.47;4995764;28;19973;-67
2022/12/04 10:53:39;;;;;;;;;;;;;;;-0.85;70.40;102956.50;4995962;28;19963;-67
2022/12/04 10:56:23;;;;;;;;;;;;;;;-0.87;69.51;102963.59;4995613;28;19918;-67
2022/12/04 10:58:58;;;;;;;;;;;;;;;-0.87;70.45;102957.47;4996155;28;19971;-67
2022/12/04 11:01:25;;;;;;;;;;;;;;;-0.85;72.75;102960.91;4994433;28;19917;-67
2022/12/04 11:03:59;;;;;;;;;;;;;;;-0.88;69.71;102956.59;4995654;28;19920;-67
2022/12/04 11:06:25;;;;;;;;;;;;;;;-0.87;70.65;102945.13;4993973;28;19929;-67
2022/12/04 11:08:51;;;;;;;;;;;;;;;-0.86;69.39;102941.56;4994035;28;19914;-67
2022/12/04 11:11:22;;;;;;;;;;;;;;;-0.82;70.77;102945.84;4993979;28;19914;-67
2022/12/04 11:13:47;;;;;;;;;;;;;;;-0.82;69.44;102939.66;4995401;28;20366;-66
2022/12/04 11:16:30;;;;;;;;;;;;;;;-0.78;69.83;102946.53;4995494;28;19940;-66
2022/12/04 11:18:56;;;;;;;;;;;;;;;-0.71;72.73;102947.19;4995964;28;20373;-67
2022/12/04 11:21:30;;;;;;;;;;;;;;;-0.72;70.64;102941.06;4997461;28;19921;-67
2022/12/04 11:23:57;;;;;;;;;;;;;;;-0.72;71.55;102945.47;4999044;28;19917;-66
2022/12/04 11:26:37;;;;;;;;;;;;;;;-0.75;69.83;102943.81;4996776;28;19964;-67
2022/12/04 11:29:04;;;;;;;;;;;;;;;-0.72;69.99;102945.47;4999495;28;19914;-66
2022/12/04 11:31:31;;;;;;;;;;;;;;;-0.76;68.01;102952.66;5001700;28;19914;-66
2022/12/04 11:33:58;;;;;;;;;;;;;;;-0.76;70.25;102947.38;5003132;28;19914;-66
2022/12/04 11:36:29;;;;;;;;;;;;;;;-0.72;72.00;102953.41;4998591;28;19949;-66
2022/12/04 11:39:09;;;;;;;;;;;;;;;-0.76;70.78;102950.00;4998177;28;19918;-66
2022/12/04 11:41:35;;;;;;;;;;;;;;;-0.76;71.67;102942.09;5004214;28;19913;-66
2022/12/04 11:44:00;;;;;;;;;;;;;;;-0.75;71.10;102945.59;5004407;28;19914;-66
2022/12/04 11:46:27;;;;;;;;;;;;;;;-0.77;69.81;102943.00;5005110;28;19918;-66
2022/12/04 11:48:53;;;;;;;;;;;;;;;-0.76;73.14;102936.81;4995099;28;19920;-66
2022/12/04 11:51:36;;;;;;;;;;;;;;;-0.76;70.39;102938.56;4995690;28;20012;-67
2022/12/04 11:54:04;;;;;;;;;;;;;;;-0.81;69.65;102936.13;4995354;28;20358;-68
2022/12/04 11:56:30;;;;;;;;;;;;;;;-0.78;70.97;102936.00;4977461;28;20341;-67
2022/12/04 11:58:55;;;;;;;;;;;;;;;-0.76;71.15;102930.66;4993605;28;19976;-68
2022/12/04 12:01:23;;;;;;;;;;;;;;;-0.74;71.13;102937.63;4993003;28;19913;-65
2022/12/04 12:04:07;;;;;;;;;;;;;;;-0.75;70.76;102938.53;4994713;28;19918;-66
2022/12/04 12:06:32;;;;;;;;;;;;;;;-0.79;69.83;102942.19;4994798;28;19917;-66
2022/12/04 12:09:13;;;;;;;;;;;;;;;-0.80;71.04;102941.34;4993170;28;20397;-66
2022/12/04 12:11:47;;;;;;;;;;;;;;;-0.82;70.65;102944.94;4994518;28;20012;-67
2022/12/04 12:14:22;;;;;;;;;;;;;;;-0.81;72.46;102950.16;4994792;28;19914;-67
2022/12/04 12:17:05;;;;;;;;;;;;;;;-0.80;72.03;102937.84;4994345;28;20392;-68
2022/12/04 12:19:40;;;;;;;;;;;;;;;-0.79;71.66;102935.13;4994359;28;19921;-68
2022/12/04 12:22:25;;;;;;;;;;;;;;;-0.78;71.30;102941.25;4994599;28;19913;-67
2022/12/04 12:24:56;;;;;;;;;;;;;;;-0.86;68.81;102938.94;4994099;28;20008;-68
2022/12/04 12:27:33;;;;;;;;;;;;;;;-0.84;72.32;102934.44;4994445;28;19968;-68
2022/12/04 12:30:05;;;;;;;;;;;;;;;-0.80;74.21;102937.84;4993300;28;19921;-67
2022/12/04 12:32:38;;;;;;;;;;;;;;;-0.83;71.82;102933.53;4993291;28;19921;-67
2022/12/04 12:35:04;;;;;;;;;;;;;;;-0.80;73.29;102937.84;4976647;28;20277;-68
2022/12/04 12:37:32;;;;;;;;;;;;;;;-0.83;71.80;102932.69;4993869;28;20048;-67
2022/12/04 12:40:04;;;;;;;;;;;;;;;-0.84;72.45;102938.88;4994272;28;20278;-67
2022/12/04 12:42:34;;;;;;;;;;;;;;;-0.86;71.23;102933.66;4994170;28;20360;-67
2022/12/04 12:45:06;;;;;;;;;;;;;;;-0.88;71.96;102935.50;4994253;28;20012;-67
2022/12/04 12:47:42;;;;;;;;;;;;;;;-0.87;72.28;102928.47;4994593;28;20004;-67
2022/12/04 12:50:18;;;;;;;;;;;;;;;-0.88;70.88;102922.31;4994078;28;19921;-67
2022/12/04 12:52:57;;;;;;;;;;;;;;;-0.92;70.22;102918.06;4994679;28;19921;-67